Peles — YQLY — position and weather

sailwx.info

Track history (hours):
 
Tides and Currents Weather Stations Pressure Air Temp Water Temp Dewpoint Dewpoint Depression Visibility Wind Speed Wind Dir Waves Ship Positions

Peles

Last reported at 2017-Oct-19 01:56 UTC. Time now 2017-Oct-19 02:05 UTC.
Position N 44°10' E 028°40'.

Length 17 m; draft 1.8 m.

Type: Tug. MMSI: 264163069.

Date/timePositionNaut miles runAvg speedWind from/ knotsBaromVisibWave heightAir tempDewpointWater temp
2017-Oct-19 01:56N 44°10' E 028°40'0 0.0
2017-Oct-19 01:29N 44°10' E 028°40'0 0.0
2017-Oct-19 00:59N 44°10' E 028°40'0 0.0
2017-Oct-19 00:29N 44°10' E 028°40'0 0.0
2017-Oct-18 23:53N 44°10' E 028°40'0 0.0
2017-Oct-18 23:29N 44°10' E 028°40'0 0.0
2017-Oct-18 22:59N 44°10' E 028°40'0 0.0
2017-Oct-18 22:29N 44°10' E 028°40'0 0.0
2017-Oct-18 21:56N 44°10' E 028°40'0 0.0
2017-Oct-18 21:26N 44°10' E 028°40'1 1.0
2017-Oct-18 20:55N 44°10' E 028°39'1 1.4
2017-Oct-18 20:31N 44°09' E 028°39'0 0.4
2017-Oct-18 20:00N 44°10' E 028°40'0 0.0
2017-Oct-18 19:27N 44°10' E 028°40'0 0.0
2017-Oct-18 18:57N 44°10' E 028°40'0 0.0
2017-Oct-18 18:30N 44°10' E 028°40'0 0.0
2017-Oct-18 18:00N 44°10' E 028°40'0 0.0
2017-Oct-18 17:27N 44°10' E 028°40'0 0.8
2017-Oct-18 16:58N 44°09' E 028°39'2 4.3
2017-Oct-18 16:31N 44°08' E 028°41'2 3.2
2017-Oct-18 15:58N 44°06' E 028°40'1 1.1
2017-Oct-18 15:30N 44°07' E 028°40'2 4.0
2017-Oct-18 15:00N 44°08' E 028°39'1 1.1
2017-Oct-18 13:59N 44°10' E 028°40'0 0.0
2017-Oct-18 13:29N 44°10' E 028°40'0 0.0
2017-Oct-18 12:59N 44°10' E 028°40'0 0.0
2017-Oct-18 12:29N 44°10' E 028°40'0 0.0
2017-Oct-18 11:56N 44°10' E 028°40'0 0.0
2017-Oct-18 11:29N 44°10' E 028°40'0 0.0
2017-Oct-18 10:59N 44°10' E 028°40'4 6.5
2017-Oct-18 10:25N 44°06' E 028°42'0 0.0
2017-Oct-18 09:58N 44°06' E 028°42'0 0.0
2017-Oct-18 09:28N 44°06' E 028°42'0 0.0
2017-Oct-18 08:58N 44°06' E 028°42'1 1.5
2017-Oct-18 08:30N 44°06' E 028°43'1 2.9
2017-Oct-18 08:00N 44°05' E 028°44'4 8.6
2017-Oct-18 07:30N 44°01' E 028°47'1 2.4
2017-Oct-18 07:00N 44°00' E 028°48'4 8.7
2017-Oct-18 06:30N 44°03' E 028°44'3 5.1
2017-Oct-18 06:00N 44°06' E 028°43'3 5.7
2017-Oct-18 05:30N 44°08' E 028°41'2 3.0
2017-Oct-18 04:58N 44°10' E 028°40'0 0.0
2017-Oct-18 04:28N 44°10' E 028°40'0 0.0
2017-Oct-18 03:58N 44°10' E 028°40'0 0.0
2017-Oct-18 03:28N 44°10' E 028°40'0 0.0
2017-Oct-18 02:55N 44°10' E 028°40'0 0.0
2017-Oct-18 02:28N 44°10' E 028°40'0 0.0
2017-Oct-18 01:55N 44°10' E 028°40'0 0.0
2017-Oct-18 01:28N 44°10' E 028°40'0 0.0
2017-Oct-18 00:58N 44°10' E 028°40'0 0.0
2017-Oct-18 00:28N 44°10' E 028°40'0 0.0
2017-Oct-17 23:58N 44°10' E 028°40'0 0.0
2017-Oct-17 23:28N 44°10' E 028°40'0 0.0
2017-Oct-17 22:58N 44°10' E 028°40'0 0.0
2017-Oct-17 22:28N 44°10' E 028°40'0 0.0
2017-Oct-17 21:58N 44°10' E 028°40'0 0.0
2017-Oct-17 21:28N 44°10' E 028°40'0 0.0
2017-Oct-17 20:58N 44°10' E 028°40'0 0.0
2017-Oct-17 20:28N 44°10' E 028°40'0 0.0
2017-Oct-17 19:58N 44°10' E 028°40'0 0.0
2017-Oct-17 19:28N 44°10' E 028°40'0 0.0
2017-Oct-17 18:58N 44°10' E 028°40'0 0.0
2017-Oct-17 18:28N 44°10' E 028°40'0 0.0
2017-Oct-17 17:58N 44°10' E 028°40'0 0.0
2017-Oct-17 17:28N 44°10' E 028°40'0 0.0
2017-Oct-17 16:58N 44°10' E 028°40'0 0.0
2017-Oct-17 16:28N 44°10' E 028°40'0 0.0
2017-Oct-17 15:58N 44°10' E 028°40'0 0.0
2017-Oct-17 15:19N 44°10' E 028°40'0 0.0
2017-Oct-17 14:58N 44°10' E 028°40'0 0.0
2017-Oct-17 14:28N 44°10' E 028°40'0 0.0
2017-Oct-17 13:58N 44°10' E 028°40'0 0.0
2017-Oct-17 13:25N 44°10' E 028°40'0 0.0
2017-Oct-17 12:58N 44°10' E 028°40'0 0.0
2017-Oct-17 12:28N 44°10' E 028°40'0 0.0
2017-Oct-17 11:58N 44°10' E 028°40'0 0.0
2017-Oct-17 11:28N 44°10' E 028°40'0 0.0
2017-Oct-17 10:58N 44°10' E 028°40'0 0.0
2017-Oct-17 10:28N 44°10' E 028°40'0 0.4
2017-Oct-17 10:00N 44°10' E 028°39'0 0.5
2017-Oct-17 09:30N 44°09' E 028°39'0 0.4
2017-Oct-17 08:59N 44°10' E 028°40'0 0.0
2017-Oct-17 08:26N 44°10' E 028°40'0 0.0
2017-Oct-17 07:59N 44°10' E 028°40'1 1.4
2017-Oct-17 07:28N 44°09' E 028°40'0 0.7
2017-Oct-17 06:59N 44°09' E 028°40'0 0.4
2017-Oct-17 06:29N 44°09' E 028°40'1 2.5
2017-Oct-17 06:00N 44°10' E 028°39'0 0.1
2017-Oct-17 05:31N 44°10' E 028°39'0 0.4
2017-Oct-17 04:59N 44°10' E 028°40'0 0.0
2017-Oct-17 04:29N 44°10' E 028°40'0 0.0
2017-Oct-17 03:59N 44°10' E 028°40'0 0.0
2017-Oct-17 03:14N 44°10' E 028°40'0 0.0
2017-Oct-17 02:59N 44°10' E 028°40'0 0.0
2017-Oct-17 02:29N 44°10' E 028°40'0 0.0
2017-Oct-17 01:59N 44°10' E 028°40'0 0.0
2017-Oct-17 01:29N 44°10' E 028°40'0 0.0
2017-Oct-17 00:59N 44°10' E 028°40'0 0.0
2017-Oct-17 00:29N 44°10' E 028°40'0 0.0
2017-Oct-16 23:59N 44°10' E 028°40'0 0.0
2017-Oct-16 23:29N 44°10' E 028°40'0 0.0
2017-Oct-16 22:59N 44°10' E 028°40'0 0.0
2017-Oct-16 22:29N 44°10' E 028°40'0 0.0
2017-Oct-16 21:59N 44°10' E 028°40'0 0.0
2017-Oct-16 21:26N 44°10' E 028°40'0 0.0
2017-Oct-16 20:59N 44°10' E 028°40'0 0.0
2017-Oct-16 20:29N 44°10' E 028°40'0 0.0
2017-Oct-16 19:59N 44°10' E 028°40'0 0.0
2017-Oct-16 19:29N 44°10' E 028°40'0 0.0
2017-Oct-16 18:59N 44°10' E 028°40'0 0.0
2017-Oct-16 18:29N 44°10' E 028°40'0 0.0
2017-Oct-16 17:59N 44°10' E 028°40'0 0.0
2017-Oct-16 17:20N 44°10' E 028°40'0 0.0
2017-Oct-16 16:53N 44°10' E 028°40'0 0.0
2017-Oct-16 16:29N 44°10' E 028°40'0 0.0
2017-Oct-16 15:59N 44°10' E 028°40'0 0.9
2017-Oct-16 15:30N 44°10' E 028°39'0 0.8
2017-Oct-16 14:59N 44°10' E 028°40'0 0.2
2017-Oct-16 14:00N 44°10' E 028°39'0 0.1
2017-Oct-16 13:30N 44°10' E 028°39'0 0.0
2017-Oct-16 13:00N 44°10' E 028°39'0 0.0
2017-Oct-16 12:30N 44°10' E 028°39'0 0.0
2017-Oct-16 12:00N 44°10' E 028°39'0 0.0
2017-Oct-16 11:30N 44°10' E 028°39'0 0.1
2017-Oct-16 11:00N 44°10' E 028°39'0 0.1
2017-Oct-16 10:29N 44°10' E 028°39'0 0.0
2017-Oct-16 09:59N 44°10' E 028°39'0 0.4
2017-Oct-16 09:29N 44°10' E 028°40'0 0.5
2017-Oct-16 09:00N 44°09' E 028°39'1 1.3
2017-Oct-16 08:28N 44°10' E 028°39'1 2.9
2017-Oct-16 08:00N 44°09' E 028°40'1 1.3
2017-Oct-16 07:30N 44°10' E 028°40'0 0.0
2017-Oct-16 07:00N 44°10' E 028°40'0 0.0
2017-Oct-16 06:30N 44°10' E 028°40'0 0.0
2017-Oct-16 06:00N 44°10' E 028°40'0 0.0
2017-Oct-16 05:30N 44°10' E 028°40'0 0.0
2017-Oct-16 05:00N 44°10' E 028°40'0 0.0
2017-Oct-16 04:30N 44°10' E 028°40'0 0.0
2017-Oct-16 04:00N 44°10' E 028°40'0 0.0
2017-Oct-16 03:30N 44°10' E 028°40'0 0.0
2017-Oct-16 03:00N 44°10' E 028°40'0 0.0
2017-Oct-16 02:30N 44°10' E 028°40'0 0.0
2017-Oct-16 02:00N 44°10' E 028°40'0 0.0
2017-Oct-16 01:30N 44°10' E 028°40'0 0.0
2017-Oct-16 01:00N 44°10' E 028°40'0 0.0
2017-Oct-16 00:30N 44°10' E 028°40'0 0.0
2017-Oct-16 00:00N 44°10' E 028°40'0 0.0
2017-Oct-15 23:30N 44°10' E 028°40'0 0.0
2017-Oct-15 23:00N 44°10' E 028°40'0 0.0
2017-Oct-15 22:30N 44°10' E 028°40'0 0.0
2017-Oct-15 22:00N 44°10' E 028°40'0 0.0
2017-Oct-15 21:30N 44°10' E 028°40'0 0.0
2017-Oct-15 21:00N 44°10' E 028°40'0 0.0
2017-Oct-15 20:27N 44°10' E 028°40'0 0.0
2017-Oct-15 20:00N 44°10' E 028°40'0 0.0
2017-Oct-15 19:30N 44°10' E 028°40'0 0.0
2017-Oct-15 19:00N 44°10' E 028°40'0 0.0
2017-Oct-15 18:30N 44°10' E 028°40'0 0.0
2017-Oct-15 18:00N 44°10' E 028°40'0 0.0
2017-Oct-15 17:30N 44°10' E 028°40'0 0.0
2017-Oct-15 17:00N 44°10' E 028°40'0 0.0
2017-Oct-15 16:30N 44°10' E 028°40'0 0.0
2017-Oct-15 16:00N 44°10' E 028°40'0 0.0
2017-Oct-15 15:30N 44°10' E 028°40'0 0.0
2017-Oct-15 14:57N 44°10' E 028°40'0 0.0
2017-Oct-15 14:00N 44°10' E 028°40'0 0.0
2017-Oct-15 13:30N 44°10' E 028°40'0 0.0
2017-Oct-15 13:00N 44°10' E 028°40'0 0.0
2017-Oct-15 12:30N 44°10' E 028°40'0 0.0
2017-Oct-15 12:00N 44°10' E 028°40'0 0.0
2017-Oct-15 11:30N 44°10' E 028°40'0 0.0
2017-Oct-15 11:00N 44°10' E 028°40'0 0.0
2017-Oct-15 10:30N 44°10' E 028°40'0 0.0
2017-Oct-15 10:00N 44°10' E 028°40'0 0.0
2017-Oct-15 09:30N 44°10' E 028°40'0 0.0
2017-Oct-15 09:00N 44°10' E 028°40'0 0.0
2017-Oct-15 08:30N 44°10' E 028°40'0 0.0
2017-Oct-15 08:00N 44°10' E 028°40'0 0.0
2017-Oct-15 07:30N 44°10' E 028°40'0 0.0
2017-Oct-15 07:00N 44°10' E 028°40'0 0.0
2017-Oct-15 06:30N 44°10' E 028°40'0 0.0
2017-Oct-15 06:00N 44°10' E 028°40'0 0.0
2017-Oct-15 05:27N 44°10' E 028°40'0 0.0
2017-Oct-15 05:00N 44°10' E 028°40'0 0.0
2017-Oct-15 04:30N 44°10' E 028°40'0 0.0
2017-Oct-15 04:00N 44°10' E 028°40'0 0.0
2017-Oct-15 03:30N 44°10' E 028°40'0 0.0
2017-Oct-15 03:00N 44°10' E 028°40'0 0.0
2017-Oct-15 02:30N 44°10' E 028°40'0 0.0
2017-Oct-15 02:00N 44°10' E 028°40'0 0.0
2017-Oct-15 01:30N 44°10' E 028°40'0 0.0
2017-Oct-15 01:00N 44°10' E 028°40'0 0.0
2017-Oct-15 00:30N 44°10' E 028°40'0 0.0
2017-Oct-15 00:00N 44°10' E 028°40'0 0.0
2017-Oct-14 23:30N 44°10' E 028°40'0 0.0
2017-Oct-14 23:00N 44°10' E 028°40'0 0.0
2017-Oct-14 22:30N 44°10' E 028°40'0 0.0
2017-Oct-14 22:00N 44°10' E 028°40'0 0.0
2017-Oct-14 21:30N 44°10' E 028°40'0 0.0
2017-Oct-14 21:00N 44°10' E 028°40'0 0.0
2017-Oct-14 20:30N 44°10' E 028°40'0 0.0
2017-Oct-14 20:00N 44°10' E 028°40'0 0.0
2017-Oct-14 19:30N 44°10' E 028°40'0 0.0
2017-Oct-14 19:00N 44°10' E 028°40'0 0.0
2017-Oct-14 18:30N 44°10' E 028°40'0 0.0
2017-Oct-14 18:00N 44°10' E 028°40'0 0.0
2017-Oct-14 17:30N 44°10' E 028°40'0 0.0
2017-Oct-14 17:00N 44°10' E 028°40'0 0.0
2017-Oct-14 16:30N 44°10' E 028°40'0 0.0
2017-Oct-14 16:00N 44°10' E 028°40'0 0.0
2017-Oct-14 15:30N 44°10' E 028°40'0 0.0
2017-Oct-14 15:00N 44°10' E 028°40'0 0.0
2017-Oct-14 14:30N 44°10' E 028°40'0 0.0
2017-Oct-14 14:00N 44°10' E 028°40'0 0.0
2017-Oct-14 13:30N 44°10' E 028°40'0 0.0
2017-Oct-14 13:00N 44°10' E 028°40'0 0.0
2017-Oct-14 12:30N 44°10' E 028°40'0 0.0
2017-Oct-14 12:00N 44°10' E 028°40'0 0.0
2017-Oct-14 11:30N 44°10' E 028°40'0 0.0
2017-Oct-14 11:00N 44°10' E 028°40'0 0.0
2017-Oct-14 10:30N 44°10' E 028°40'0 0.0
2017-Oct-14 10:00N 44°10' E 028°40'0 0.0
2017-Oct-14 09:27N 44°10' E 028°40'0 0.0
2017-Oct-14 09:00N 44°10' E 028°40'0 0.0
2017-Oct-14 08:30N 44°10' E 028°40'0 0.0
2017-Oct-14 08:00N 44°10' E 028°40'0 0.0
2017-Oct-14 07:30N 44°10' E 028°40'0 0.0
2017-Oct-14 07:00N 44°10' E 028°40'0 0.0
2017-Oct-14 06:30N 44°10' E 028°40'0 0.0
2017-Oct-14 06:00N 44°10' E 028°40'0 0.0
2017-Oct-14 05:27N 44°10' E 028°40'0 0.0
2017-Oct-14 05:00N 44°10' E 028°40'0 0.0
2017-Oct-14 04:30N 44°10' E 028°40'0 0.0
2017-Oct-14 04:00N 44°10' E 028°40'0 0.0
2017-Oct-14 03:30N 44°10' E 028°40'0 0.0
2017-Oct-14 02:57N 44°10' E 028°40'0 0.0
2017-Oct-14 02:30N 44°10' E 028°40'0 0.0
2017-Oct-14 02:00N 44°10' E 028°40'0 0.0
2017-Oct-14 01:27N 44°10' E 028°40'0 0.0
2017-Oct-14 01:00N 44°10' E 028°40'0 0.0
2017-Oct-14 00:30N 44°10' E 028°40'0 0.0
2017-Oct-14 00:00N 44°10' E 028°40'0 0.0
2017-Oct-13 23:27N 44°10' E 028°40'0 0.0
2017-Oct-13 22:57N 44°10' E 028°40'0 0.0
2017-Oct-13 22:30N 44°10' E 028°40'0 0.0
2017-Oct-13 21:57N 44°10' E 028°40'0 0.0
2017-Oct-13 21:27N 44°10' E 028°40'0 0.0
2017-Oct-13 21:00N 44°10' E 028°40'0 0.0
2017-Oct-13 20:30N 44°10' E 028°40'0 0.0
2017-Oct-13 20:00N 44°10' E 028°40'0 0.0
2017-Oct-13 19:30N 44°10' E 028°40'0 0.0
2017-Oct-13 19:00N 44°10' E 028°40'0 0.0
2017-Oct-13 18:30N 44°10' E 028°40'0 0.0
2017-Oct-13 18:00N 44°10' E 028°40'0 0.0
2017-Oct-13 17:30N 44°10' E 028°40'0 0.0
2017-Oct-13 16:57N 44°10' E 028°40'0 0.0
2017-Oct-13 16:30N 44°10' E 028°40'0 0.0
2017-Oct-13 16:00N 44°10' E 028°40'0 0.0
2017-Oct-13 15:27N 44°10' E 028°40'0 0.0
2017-Oct-13 14:57N 44°10' E 028°40'0 0.0
2017-Oct-13 14:30N 44°10' E 028°40'0 0.0
2017-Oct-13 14:00N 44°10' E 028°40'0 0.0
2017-Oct-13 13:27N 44°10' E 028°40'0 0.0
2017-Oct-13 13:00N 44°10' E 028°40'0 0.0
2017-Oct-13 12:30N 44°10' E 028°40'0 0.0
2017-Oct-13 12:00N 44°10' E 028°40'0 0.0
2017-Oct-13 11:30N 44°10' E 028°40'0 0.0
2017-Oct-13 11:00N 44°10' E 028°40'0 0.0
2017-Oct-13 10:30N 44°10' E 028°40'0 0.0
2017-Oct-13 10:00N 44°10' E 028°40'  
Track history (hours):
 
Tides and Currents Weather Stations Pressure Air Temp Water Temp Dewpoint Dewpoint Depression Visibility Wind Speed Wind Dir Waves Ship Positions

Peles

Last reported at 2017-Oct-19 01:56 UTC. Time now 2017-Oct-19 02:05 UTC.
Position N 44°10' E 028°40'.

Length 17 m; draft 1.8 m.

Type: Tug. MMSI: 264163069.

Date/timePositionNaut miles runAvg speedWind from/ knotsBaromVisibWave heightAir tempDewpointWater temp
2017-Oct-19 01:56N 44°10' E 028°40'0 0.0
2017-Oct-19 01:29N 44°10' E 028°40'0 0.0
2017-Oct-19 00:59N 44°10' E 028°40'0 0.0
2017-Oct-19 00:29N 44°10' E 028°40'0 0.0
2017-Oct-18 23:53N 44°10' E 028°40'0 0.0
2017-Oct-18 23:29N 44°10' E 028°40'0 0.0
2017-Oct-18 22:59N 44°10' E 028°40'0 0.0
2017-Oct-18 22:29N 44°10' E 028°40'0 0.0
2017-Oct-18 21:56N 44°10' E 028°40'0 0.0
2017-Oct-18 21:26N 44°10' E 028°40'1 1.0
2017-Oct-18 20:55N 44°10' E 028°39'1 1.4
2017-Oct-18 20:31N 44°09' E 028°39'0 0.4
2017-Oct-18 20:00N 44°10' E 028°40'0 0.0
2017-Oct-18 19:27N 44°10' E 028°40'0 0.0
2017-Oct-18 18:57N 44°10' E 028°40'0 0.0
2017-Oct-18 18:30N 44°10' E 028°40'0 0.0
2017-Oct-18 18:00N 44°10' E 028°40'0 0.0
2017-Oct-18 17:27N 44°10' E 028°40'0 0.8
2017-Oct-18 16:58N 44°09' E 028°39'2 4.3
2017-Oct-18 16:31N 44°08' E 028°41'2 3.2
2017-Oct-18 15:58N 44°06' E 028°40'1 1.1
2017-Oct-18 15:30N 44°07' E 028°40'2 4.0
2017-Oct-18 15:00N 44°08' E 028°39'1 1.1
2017-Oct-18 13:59N 44°10' E 028°40'0 0.0
2017-Oct-18 13:29N 44°10' E 028°40'0 0.0
2017-Oct-18 12:59N 44°10' E 028°40'0 0.0
2017-Oct-18 12:29N 44°10' E 028°40'0 0.0
2017-Oct-18 11:56N 44°10' E 028°40'0 0.0
2017-Oct-18 11:29N 44°10' E 028°40'0 0.0
2017-Oct-18 10:59N 44°10' E 028°40'4 6.5
2017-Oct-18 10:25N 44°06' E 028°42'0 0.0
2017-Oct-18 09:58N 44°06' E 028°42'0 0.0
2017-Oct-18 09:28N 44°06' E 028°42'0 0.0
2017-Oct-18 08:58N 44°06' E 028°42'1 1.5
2017-Oct-18 08:30N 44°06' E 028°43'1 2.9
2017-Oct-18 08:00N 44°05' E 028°44'4 8.6
2017-Oct-18 07:30N 44°01' E 028°47'1 2.4
2017-Oct-18 07:00N 44°00' E 028°48'4 8.7
2017-Oct-18 06:30N 44°03' E 028°44'3 5.1
2017-Oct-18 06:00N 44°06' E 028°43'3 5.7
2017-Oct-18 05:30N 44°08' E 028°41'2 3.0
2017-Oct-18 04:58N 44°10' E 028°40'0 0.0
2017-Oct-18 04:28N 44°10' E 028°40'0 0.0
2017-Oct-18 03:58N 44°10' E 028°40'0 0.0
2017-Oct-18 03:28N 44°10' E 028°40'0 0.0
2017-Oct-18 02:55N 44°10' E 028°40'0 0.0
2017-Oct-18 02:28N 44°10' E 028°40'0 0.0
2017-Oct-18 01:55N 44°10' E 028°40'0 0.0
2017-Oct-18 01:28N 44°10' E 028°40'0 0.0
2017-Oct-18 00:58N 44°10' E 028°40'0 0.0
2017-Oct-18 00:28N 44°10' E 028°40'0 0.0
2017-Oct-17 23:58N 44°10' E 028°40'0 0.0
2017-Oct-17 23:28N 44°10' E 028°40'0 0.0
2017-Oct-17 22:58N 44°10' E 028°40'0 0.0
2017-Oct-17 22:28N 44°10' E 028°40'0 0.0
2017-Oct-17 21:58N 44°10' E 028°40'0 0.0
2017-Oct-17 21:28N 44°10' E 028°40'0 0.0
2017-Oct-17 20:58N 44°10' E 028°40'0 0.0
2017-Oct-17 20:28N 44°10' E 028°40'0 0.0
2017-Oct-17 19:58N 44°10' E 028°40'0 0.0
2017-Oct-17 19:28N 44°10' E 028°40'0 0.0
2017-Oct-17 18:58N 44°10' E 028°40'0 0.0
2017-Oct-17 18:28N 44°10' E 028°40'0 0.0
2017-Oct-17 17:58N 44°10' E 028°40'0 0.0
2017-Oct-17 17:28N 44°10' E 028°40'0 0.0
2017-Oct-17 16:58N 44°10' E 028°40'0 0.0
2017-Oct-17 16:28N 44°10' E 028°40'0 0.0
2017-Oct-17 15:58N 44°10' E 028°40'0 0.0
2017-Oct-17 15:19N 44°10' E 028°40'0 0.0
2017-Oct-17 14:58N 44°10' E 028°40'0 0.0
2017-Oct-17 14:28N 44°10' E 028°40'0 0.0
2017-Oct-17 13:58N 44°10' E 028°40'0 0.0
2017-Oct-17 13:25N 44°10' E 028°40'0 0.0
2017-Oct-17 12:58N 44°10' E 028°40'0 0.0
2017-Oct-17 12:28N 44°10' E 028°40'0 0.0
2017-Oct-17 11:58N 44°10' E 028°40'0 0.0
2017-Oct-17 11:28N 44°10' E 028°40'0 0.0
2017-Oct-17 10:58N 44°10' E 028°40'0 0.0
2017-Oct-17 10:28N 44°10' E 028°40'0 0.4
2017-Oct-17 10:00N 44°10' E 028°39'0 0.5
2017-Oct-17 09:30N 44°09' E 028°39'0 0.4
2017-Oct-17 08:59N 44°10' E 028°40'0 0.0
2017-Oct-17 08:26N 44°10' E 028°40'0 0.0
2017-Oct-17 07:59N 44°10' E 028°40'1 1.4
2017-Oct-17 07:28N 44°09' E 028°40'0 0.7
2017-Oct-17 06:59N 44°09' E 028°40'0 0.4
2017-Oct-17 06:29N 44°09' E 028°40'1 2.5
2017-Oct-17 06:00N 44°10' E 028°39'0 0.1
2017-Oct-17 05:31N 44°10' E 028°39'0 0.4
2017-Oct-17 04:59N 44°10' E 028°40'0 0.0
2017-Oct-17 04:29N 44°10' E 028°40'0 0.0
2017-Oct-17 03:59N 44°10' E 028°40'0 0.0
2017-Oct-17 03:14N 44°10' E 028°40'0 0.0
2017-Oct-17 02:59N 44°10' E 028°40'0 0.0
2017-Oct-17 02:29N 44°10' E 028°40'0 0.0
2017-Oct-17 01:59N 44°10' E 028°40'0 0.0
2017-Oct-17 01:29N 44°10' E 028°40'0 0.0
2017-Oct-17 00:59N 44°10' E 028°40'0 0.0
2017-Oct-17 00:29N 44°10' E 028°40'0 0.0
2017-Oct-16 23:59N 44°10' E 028°40'0 0.0
2017-Oct-16 23:29N 44°10' E 028°40'0 0.0
2017-Oct-16 22:59N 44°10' E 028°40'0 0.0
2017-Oct-16 22:29N 44°10' E 028°40'0 0.0
2017-Oct-16 21:59N 44°10' E 028°40'0 0.0
2017-Oct-16 21:26N 44°10' E 028°40'0 0.0
2017-Oct-16 20:59N 44°10' E 028°40'0 0.0
2017-Oct-16 20:29N 44°10' E 028°40'0 0.0
2017-Oct-16 19:59N 44°10' E 028°40'0 0.0
2017-Oct-16 19:29N 44°10' E 028°40'0 0.0
2017-Oct-16 18:59N 44°10' E 028°40'0 0.0
2017-Oct-16 18:29N 44°10' E 028°40'0 0.0
2017-Oct-16 17:59N 44°10' E 028°40'0 0.0
2017-Oct-16 17:20N 44°10' E 028°40'0 0.0
2017-Oct-16 16:53N 44°10' E 028°40'0 0.0
2017-Oct-16 16:29N 44°10' E 028°40'0 0.0
2017-Oct-16 15:59N 44°10' E 028°40'0 0.9
2017-Oct-16 15:30N 44°10' E 028°39'0 0.8
2017-Oct-16 14:59N 44°10' E 028°40'0 0.2
2017-Oct-16 14:00N 44°10' E 028°39'0 0.1
2017-Oct-16 13:30N 44°10' E 028°39'0 0.0
2017-Oct-16 13:00N 44°10' E 028°39'0 0.0
2017-Oct-16 12:30N 44°10' E 028°39'0 0.0
2017-Oct-16 12:00N 44°10' E 028°39'0 0.0
2017-Oct-16 11:30N 44°10' E 028°39'0 0.1
2017-Oct-16 11:00N 44°10' E 028°39'0 0.1
2017-Oct-16 10:29N 44°10' E 028°39'0 0.0
2017-Oct-16 09:59N 44°10' E 028°39'0 0.4
2017-Oct-16 09:29N 44°10' E 028°40'0 0.5
2017-Oct-16 09:00N 44°09' E 028°39'1 1.3
2017-Oct-16 08:28N 44°10' E 028°39'1 2.9
2017-Oct-16 08:00N 44°09' E 028°40'1 1.3
2017-Oct-16 07:30N 44°10' E 028°40'0 0.0
2017-Oct-16 07:00N 44°10' E 028°40'0 0.0
2017-Oct-16 06:30N 44°10' E 028°40'0 0.0
2017-Oct-16 06:00N 44°10' E 028°40'0 0.0
2017-Oct-16 05:30N 44°10' E 028°40'0 0.0
2017-Oct-16 05:00N 44°10' E 028°40'0 0.0
2017-Oct-16 04:30N 44°10' E 028°40'0 0.0
2017-Oct-16 04:00N 44°10' E 028°40'0 0.0
2017-Oct-16 03:30N 44°10' E 028°40'0 0.0
2017-Oct-16 03:00N 44°10' E 028°40'0 0.0
2017-Oct-16 02:30N 44°10' E 028°40'0 0.0
2017-Oct-16 02:00N 44°10' E 028°40'0 0.0
2017-Oct-16 01:30N 44°10' E 028°40'0 0.0
2017-Oct-16 01:00N 44°10' E 028°40'0 0.0
2017-Oct-16 00:30N 44°10' E 028°40'0 0.0
2017-Oct-16 00:00N 44°10' E 028°40'0 0.0
2017-Oct-15 23:30N 44°10' E 028°40'0 0.0
2017-Oct-15 23:00N 44°10' E 028°40'0 0.0
2017-Oct-15 22:30N 44°10' E 028°40'0 0.0
2017-Oct-15 22:00N 44°10' E 028°40'0 0.0
2017-Oct-15 21:30N 44°10' E 028°40'0 0.0
2017-Oct-15 21:00N 44°10' E 028°40'0 0.0
2017-Oct-15 20:27N 44°10' E 028°40'0 0.0
2017-Oct-15 20:00N 44°10' E 028°40'0 0.0
2017-Oct-15 19:30N 44°10' E 028°40'0 0.0
2017-Oct-15 19:00N 44°10' E 028°40'0 0.0
2017-Oct-15 18:30N 44°10' E 028°40'0 0.0
2017-Oct-15 18:00N 44°10' E 028°40'0 0.0
2017-Oct-15 17:30N 44°10' E 028°40'0 0.0
2017-Oct-15 17:00N 44°10' E 028°40'0 0.0
2017-Oct-15 16:30N 44°10' E 028°40'0 0.0
2017-Oct-15 16:00N 44°10' E 028°40'0 0.0
2017-Oct-15 15:30N 44°10' E 028°40'0 0.0
2017-Oct-15 14:57N 44°10' E 028°40'0 0.0
2017-Oct-15 14:00N 44°10' E 028°40'0 0.0
2017-Oct-15 13:30N 44°10' E 028°40'0 0.0
2017-Oct-15 13:00N 44°10' E 028°40'0 0.0
2017-Oct-15 12:30N 44°10' E 028°40'0 0.0
2017-Oct-15 12:00N 44°10' E 028°40'0 0.0
2017-Oct-15 11:30N 44°10' E 028°40'0 0.0
2017-Oct-15 11:00N 44°10' E 028°40'0 0.0
2017-Oct-15 10:30N 44°10' E 028°40'0 0.0
2017-Oct-15 10:00N 44°10' E 028°40'0 0.0
2017-Oct-15 09:30N 44°10' E 028°40'0 0.0
2017-Oct-15 09:00N 44°10' E 028°40'0 0.0
2017-Oct-15 08:30N 44°10' E 028°40'0 0.0
2017-Oct-15 08:00N 44°10' E 028°40'0 0.0
2017-Oct-15 07:30N 44°10' E 028°40'0 0.0
2017-Oct-15 07:00N 44°10' E 028°40'0 0.0
2017-Oct-15 06:30N 44°10' E 028°40'0 0.0
2017-Oct-15 06:00N 44°10' E 028°40'0 0.0
2017-Oct-15 05:27N 44°10' E 028°40'0 0.0
2017-Oct-15 05:00N 44°10' E 028°40'0 0.0
2017-Oct-15 04:30N 44°10' E 028°40'0 0.0
2017-Oct-15 04:00N 44°10' E 028°40'0 0.0
2017-Oct-15 03:30N 44°10' E 028°40'0 0.0
2017-Oct-15 03:00N 44°10' E 028°40'0 0.0
2017-Oct-15 02:30N 44°10' E 028°40'0 0.0
2017-Oct-15 02:00N 44°10' E 028°40'0 0.0
2017-Oct-15 01:30N 44°10' E 028°40'0 0.0
2017-Oct-15 01:00N 44°10' E 028°40'0 0.0
2017-Oct-15 00:30N 44°10' E 028°40'0 0.0
2017-Oct-15 00:00N 44°10' E 028°40'0 0.0
2017-Oct-14 23:30N 44°10' E 028°40'0 0.0
2017-Oct-14 23:00N 44°10' E 028°40'0 0.0
2017-Oct-14 22:30N 44°10' E 028°40'0 0.0
2017-Oct-14 22:00N 44°10' E 028°40'0 0.0
2017-Oct-14 21:30N 44°10' E 028°40'0 0.0
2017-Oct-14 21:00N 44°10' E 028°40'0 0.0
2017-Oct-14 20:30N 44°10' E 028°40'0 0.0
2017-Oct-14 20:00N 44°10' E 028°40'0 0.0
2017-Oct-14 19:30N 44°10' E 028°40'0 0.0
2017-Oct-14 19:00N 44°10' E 028°40'0 0.0
2017-Oct-14 18:30N 44°10' E 028°40'0 0.0
2017-Oct-14 18:00N 44°10' E 028°40'0 0.0
2017-Oct-14 17:30N 44°10' E 028°40'0 0.0
2017-Oct-14 17:00N 44°10' E 028°40'0 0.0
2017-Oct-14 16:30N 44°10' E 028°40'0 0.0
2017-Oct-14 16:00N 44°10' E 028°40'0 0.0
2017-Oct-14 15:30N 44°10' E 028°40'0 0.0
2017-Oct-14 15:00N 44°10' E 028°40'0 0.0
2017-Oct-14 14:30N 44°10' E 028°40'0 0.0
2017-Oct-14 14:00N 44°10' E 028°40'0 0.0
2017-Oct-14 13:30N 44°10' E 028°40'0 0.0
2017-Oct-14 13:00N 44°10' E 028°40'0 0.0
2017-Oct-14 12:30N 44°10' E 028°40'0 0.0
2017-Oct-14 12:00N 44°10' E 028°40'0 0.0
2017-Oct-14 11:30N 44°10' E 028°40'0 0.0
2017-Oct-14 11:00N 44°10' E 028°40'0 0.0
2017-Oct-14 10:30N 44°10' E 028°40'0 0.0
2017-Oct-14 10:00N 44°10' E 028°40'0 0.0
2017-Oct-14 09:27N 44°10' E 028°40'0 0.0
2017-Oct-14 09:00N 44°10' E 028°40'0 0.0
2017-Oct-14 08:30N 44°10' E 028°40'0 0.0
2017-Oct-14 08:00N 44°10' E 028°40'0 0.0
2017-Oct-14 07:30N 44°10' E 028°40'0 0.0
2017-Oct-14 07:00N 44°10' E 028°40'0 0.0
2017-Oct-14 06:30N 44°10' E 028°40'0 0.0
2017-Oct-14 06:00N 44°10' E 028°40'0 0.0
2017-Oct-14 05:27N 44°10' E 028°40'0 0.0
2017-Oct-14 05:00N 44°10' E 028°40'0 0.0
2017-Oct-14 04:30N 44°10' E 028°40'0 0.0
2017-Oct-14 04:00N 44°10' E 028°40'0 0.0
2017-Oct-14 03:30N 44°10' E 028°40'0 0.0
2017-Oct-14 02:57N 44°10' E 028°40'0 0.0
2017-Oct-14 02:30N 44°10' E 028°40'0 0.0
2017-Oct-14 02:00N 44°10' E 028°40'0 0.0
2017-Oct-14 01:27N 44°10' E 028°40'0 0.0
2017-Oct-14 01:00N 44°10' E 028°40'0 0.0
2017-Oct-14 00:30N 44°10' E 028°40'0 0.0
2017-Oct-14 00:00N 44°10' E 028°40'0 0.0
2017-Oct-13 23:27N 44°10' E 028°40'0 0.0
2017-Oct-13 22:57N 44°10' E 028°40'0 0.0
2017-Oct-13 22:30N 44°10' E 028°40'0 0.0
2017-Oct-13 21:57N 44°10' E 028°40'0 0.0
2017-Oct-13 21:27N 44°10' E 028°40'0 0.0
2017-Oct-13 21:00N 44°10' E 028°40'0 0.0
2017-Oct-13 20:30N 44°10' E 028°40'0 0.0
2017-Oct-13 20:00N 44°10' E 028°40'0 0.0
2017-Oct-13 19:30N 44°10' E 028°40'0 0.0
2017-Oct-13 19:00N 44°10' E 028°40'0 0.0
2017-Oct-13 18:30N 44°10' E 028°40'0 0.0
2017-Oct-13 18:00N 44°10' E 028°40'0 0.0
2017-Oct-13 17:30N 44°10' E 028°40'0 0.0
2017-Oct-13 16:57N 44°10' E 028°40'0 0.0
2017-Oct-13 16:30N 44°10' E 028°40'0 0.0
2017-Oct-13 16:00N 44°10' E 028°40'0 0.0
2017-Oct-13 15:27N 44°10' E 028°40'0 0.0
2017-Oct-13 14:57N 44°10' E 028°40'0 0.0
2017-Oct-13 14:30N 44°10' E 028°40'0 0.0
2017-Oct-13 14:00N 44°10' E 028°40'0 0.0
2017-Oct-13 13:27N 44°10' E 028°40'0 0.0
2017-Oct-13 13:00N 44°10' E 028°40'0 0.0
2017-Oct-13 12:30N 44°10' E 028°40'0 0.0
2017-Oct-13 12:00N 44°10' E 028°40'0 0.0
2017-Oct-13 11:30N 44°10' E 028°40'0 0.0
2017-Oct-13 11:00N 44°10' E 028°40'0 0.0
2017-Oct-13 10:30N 44°10' E 028°40'0 0.0
2017-Oct-13 10:00N 44°10' E 028°40'  

Dump ship's entire track history